Time;durP1;ratioP1;P1;durP2;ratioP2;P2;SDS_P1;SDS_P2;PMS_P1;PMS_P2;Temp;Humidity;BMP_temperature;BMP_pressure;BME280_temperature;BME280_humidity;BME280_pressure;Samples;Min_cycle;Max_cycle;Signal;HPM_P1;HPM_P2
2022/04/11 00:01:48;;;;;;;0.10;0.10;;;;;;;3.50;100.00;96988.25;6095018;23;20010;-81
2022/04/11 00:04:13;;;;;;;0.10;0.10;;;;;;;3.53;100.00;96998.69;6094637;23;20017;-81
2022/04/11 00:06:39;;;;;;;0.10;0.10;;;;;;;3.64;100.00;97007.00;6119032;23;20002;-81
2022/04/11 00:09:04;;;;;;;0.10;0.10;;;;;;;3.61;100.00;97001.84;6094878;23;20067;-81
2022/04/11 00:11:30;;;;;;;0.10;0.10;;;;;;;3.64;100.00;97007.88;6118859;22;20006;-81
2022/04/11 00:13:56;;;;;;;0.20;0.20;;;;;;;3.65;100.00;97011.38;6094926;23;20005;-82
2022/04/11 00:16:21;;;;;;;0.20;0.20;;;;;;;3.51;100.00;97013.75;6095439;23;20021;-82
2022/04/11 00:18:47;;;;;;;0.10;0.10;;;;;;;3.51;100.00;97022.53;6095267;23;20438;-82
2022/04/11 00:21:12;;;;;;;0.15;0.15;;;;;;;3.51;100.00;97017.25;6094419;23;20010;-83
2022/04/11 00:23:38;;;;;;;0.15;0.15;;;;;;;3.56;100.00;97025.88;6094389;23;20010;-81
2022/04/11 00:26:03;;;;;;;0.10;0.10;;;;;;;3.61;100.00;97037.09;6094485;23;20399;-81
2022/04/11 00:28:29;;;;;;;0.10;0.10;;;;;;;3.63;100.00;97037.88;6094702;23;20358;-81
2022/04/11 00:30:55;;;;;;;0.10;0.10;;;;;;;3.58;100.00;97046.94;6094633;23;20010;-82
2022/04/11 00:33:20;;;;;;;0.10;0.10;;;;;;;3.64;100.00;97052.81;6094351;23;20445;-82
2022/04/11 00:35:46;;;;;;;0.20;0.20;;;;;;;3.61;100.00;97050.31;6118816;23;20021;-82
2022/04/11 00:38:12;;;;;;;0.10;0.10;;;;;;;3.66;100.00;97058.91;6094826;23;20020;-81
2022/04/11 00:40:38;;;;;;;0.10;0.10;;;;;;;3.59;100.00;97064.53;6094322;23;20018;-82
2022/04/11 00:43:03;;;;;;;0.10;0.10;;;;;;;3.61;100.00;97065.31;6094544;23;20002;-82
2022/04/11 00:45:29;;;;;;;0.10;0.10;;;;;;;3.58;100.00;97062.81;6094439;23;20088;-82
2022/04/11 00:47:55;;;;;;;0.20;0.20;;;;;;;3.62;100.00;97073.19;6094762;23;20006;-82
2022/04/11 00:50:21;;;;;;;0.10;0.10;;;;;;;3.68;100.00;97083.50;6094668;23;20105;-82
2022/04/11 00:52:49;;;;;;;0.20;0.20;;;;;;;3.74;100.00;97088.53;6094432;23;20037;-83
2022/04/11 00:55:16;;;;;;;0.10;0.10;;;;;;;3.74;100.00;97103.53;6094537;23;20010;-81
2022/04/11 00:57:42;;;;;;;0.10;0.10;;;;;;;3.69;100.00;97103.72;6094642;23;20014;-83
2022/04/11 01:00:09;;;;;;;0.10;0.10;;;;;;;3.73;100.00;97118.53;6094776;23;20437;-81
2022/04/11 01:02:35;;;;;;;0.10;0.10;;;;;;;3.75;100.00;97124.63;6094329;23;20006;-83
2022/04/11 01:05:01;;;;;;;0.10;0.10;;;;;;;3.70;100.00;97129.25;6094393;23;20010;-82
2022/04/11 01:07:26;;;;;;;0.10;0.10;;;;;;;3.73;100.00;97134.41;6094518;23;20452;-84
2022/04/11 01:09:53;;;;;;;0.15;0.15;;;;;;;3.69;100.00;97131.97;6094493;23;20010;-83
2022/04/11 01:12:19;;;;;;;0.10;0.10;;;;;;;3.74;100.00;97148.50;6094598;23;20009;-82
2022/04/11 01:14:44;;;;;;;0.10;0.10;;;;;;;3.63;100.00;97143.66;6094102;23;20006;-81
2022/04/11 01:17:10;;;;;;;0.13;0.13;;;;;;;3.64;100.00;97145.38;6094303;23;20014;-81
2022/04/11 01:19:35;;;;;;;0.13;0.13;;;;;;;3.60;100.00;97150.88;6118407;23;20136;-82
2022/04/11 01:22:01;;;;;;;0.13;0.13;;;;;;;3.47;100.00;97150.50;6094167;23;20457;-82
2022/04/11 01:24:28;;;;;;;0.10;0.10;;;;;;;3.57;100.00;97165.03;6094385;23;20017;-82
2022/04/11 01:26:54;;;;;;;0.10;0.10;;;;;;;3.64;100.00;97161.25;6119003;23;20030;-81
2022/04/11 01:29:21;;;;;;;0.20;0.20;;;;;;;3.61;100.00;97171.06;6118795;23;20014;-83
2022/04/11 01:31:47;;;;;;;0.13;0.13;;;;;;;3.56;100.00;97179.22;6094323;23;20006;-83
2022/04/11 01:34:13;;;;;;;0.20;0.20;;;;;;;3.60;100.00;97186.06;6094734;23;20016;-80
2022/04/11 01:36:39;;;;;;;0.10;0.10;;;;;;;3.55;100.00;97180.13;6094152;23;20009;-83
2022/04/11 01:39:05;;;;;;;0.13;0.13;;;;;;;3.57;100.00;97191.50;6094519;23;20006;-83
2022/04/11 01:41:31;;;;;;;0.10;0.10;;;;;;;3.32;100.00;97196.03;6094206;23;20041;-83
2022/04/11 01:43:57;;;;;;;0.10;0.10;;;;;;;3.35;100.00;97195.06;6118594;23;20002;-83
2022/04/11 01:46:22;;;;;;;0.20;0.20;;;;;;;3.25;100.00;97194.56;6094080;23;20075;-82
2022/04/11 01:48:48;;;;;;;0.10;0.10;;;;;;;3.27;100.00;97205.91;6094518;23;20434;-82
2022/04/11 01:51:14;;;;;;;0.20;0.20;;;;;;;3.29;100.00;97206.75;6094640;23;20010;-82
2022/04/11 01:53:39;;;;;;;0.10;0.10;;;;;;;3.14;100.00;97210.81;6094473;23;20059;-83
2022/04/11 01:56:06;;;;;;;0.10;0.10;;;;;;;3.20;100.00;97223.78;6094080;23;20358;-83
2022/04/11 01:58:31;;;;;;;0.20;0.20;;;;;;;3.16;100.00;97227.47;6094202;23;20010;-83
2022/04/11 02:00:58;;;;;;;0.10;0.10;;;;;;;3.03;100.00;97226.22;6093928;23;20450;-82
2022/04/11 02:03:25;;;;;;;0.20;0.20;;;;;;;3.07;100.00;97224.31;6118339;23;20012;-82
2022/04/11 02:05:50;;;;;;;0.20;0.20;;;;;;;3.00;100.00;97242.19;6094101;23;20017;-82
2022/04/11 02:08:16;;;;;;;0.20;0.20;;;;;;;3.01;100.00;97251.84;6094369;23;20507;-82
2022/04/11 02:10:41;;;;;;;0.20;0.20;;;;;;;2.90;100.00;97239.91;6094310;23;20109;-82
2022/04/11 02:13:08;;;;;;;0.15;0.15;;;;;;;2.93;100.00;97256.53;6093615;23;20010;-82
2022/04/11 02:15:34;;;;;;;0.20;0.20;;;;;;;2.94;100.00;97260.91;6094293;23;20012;-82
2022/04/11 02:18:00;;;;;;;0.20;0.20;;;;;;;2.96;100.00;97260.81;6118374;22;20029;-82
2022/04/11 02:20:26;;;;;;;0.20;0.20;;;;;;;3.00;100.00;97257.16;6094065;23;20006;-83
2022/04/11 02:22:57;;;;;;;0.20;0.20;;;;;;;3.00;100.00;97265.09;6094245;23;20013;-83
2022/04/11 02:25:25;;;;;;;0.20;0.20;;;;;;;3.06;100.00;97263.09;6094509;23;20159;-82
2022/04/11 02:27:51;;;;;;;0.20;0.20;;;;;;;3.09;100.00;97276.19;6094224;23;20464;-83
2022/04/11 02:30:18;;;;;;;0.20;0.20;;;;;;;3.07;100.00;97263.94;6093932;23;20044;-83
2022/04/11 02:32:44;;;;;;;0.10;0.10;;;;;;;3.06;100.00;97272.78;6093867;23;20055;-82
2022/04/11 02:35:11;;;;;;;0.20;0.20;;;;;;;3.07;100.00;97279.81;6093968;23;20089;-82
2022/04/11 02:37:37;;;;;;;0.20;0.20;;;;;;;2.96;100.00;97266.09;6094003;23;20390;-82
2022/04/11 02:40:05;;;;;;;0.20;0.20;;;;;;;2.86;100.00;97273.50;6093862;23;20315;-83
2022/04/11 02:42:31;;;;;;;0.20;0.20;;;;;;;2.88;100.00;97279.59;6094160;23;20016;-83
2022/04/11 02:44:57;;;;;;;0.20;0.20;;;;;;;2.95;100.00;97283.75;6094067;23;20434;-83
2022/04/11 02:47:22;;;;;;;0.20;0.20;;;;;;;3.12;100.00;97285.78;6094343;23;20437;-83
2022/04/11 02:49:48;;;;;;;0.20;0.20;;;;;;;3.18;100.00;97289.06;6118450;23;20006;-83
2022/04/11 02:52:15;;;;;;;0.20;0.20;;;;;;;3.11;100.00;97292.81;6093906;23;20051;-83
2022/04/11 02:54:40;;;;;;;0.20;0.20;;;;;;;3.12;100.00;97296.34;6093843;23;20010;-83
2022/04/11 02:57:07;;;;;;;0.20;0.20;;;;;;;3.23;100.00;97297.66;6093701;23;20460;-83
2022/04/11 02:59:33;;;;;;;0.20;0.20;;;;;;;3.22;100.00;97300.38;6118322;23;20009;-83
2022/04/11 03:02:00;;;;;;;0.20;0.20;;;;;;;3.28;100.00;97313.34;6093708;23;20029;-83
2022/04/11 03:04:26;;;;;;;0.20;0.20;;;;;;;3.37;100.00;97325.38;6093938;23;20362;-83
2022/04/11 03:06:52;;;;;;;0.10;0.10;;;;;;;3.37;100.00;97323.59;6093985;23;20006;-82
2022/04/11 03:09:18;;;;;;;0.10;0.10;;;;;;;3.39;100.00;97324.38;6093968;23;20013;-82
2022/04/11 03:11:44;;;;;;;0.13;0.13;;;;;;;3.48;100.00;97328.44;6093827;23;20010;-83
2022/04/11 03:14:09;;;;;;;0.10;0.10;;;;;;;3.34;100.00;97315.78;6093511;23;20002;-82
2022/04/11 03:16:35;;;;;;;0.10;0.10;;;;;;;3.31;100.00;97331.75;6094077;23;20010;-83
2022/04/11 03:19:00;;;;;;;0.20;0.20;;;;;;;3.25;100.00;97310.81;6094156;23;20103;-83
2022/04/11 03:21:26;;;;;;;0.10;0.10;;;;;;;3.36;100.00;97335.06;6093868;23;20012;-83
2022/04/11 03:23:51;;;;;;;0.10;0.10;;;;;;;3.22;100.00;97345.28;6093590;23;20005;-83
2022/04/11 03:26:17;;;;;;;0.20;0.20;;;;;;;3.22;100.00;97337.38;6094736;23;20088;-83
2022/04/11 03:28:43;;;;;;;0.10;0.10;;;;;;;3.23;100.00;97339.94;6094741;23;20006;-83
2022/04/11 03:31:08;;;;;;;0.20;0.20;;;;;;;3.29;100.00;97360.84;6094646;23;20420;-82
2022/04/11 03:33:34;;;;;;;0.10;0.10;;;;;;;3.26;100.00;97370.69;6095555;23;20017;-81
2022/04/11 03:36:00;;;;;;;0.10;0.10;;;;;;;3.17;100.00;97355.16;6095092;23;20048;-82
2022/04/11 03:38:26;;;;;;;0.20;0.20;;;;;;;3.09;100.00;97351.94;6094957;23;20006;-82
2022/04/11 03:40:51;;;;;;;0.20;0.20;;;;;;;3.08;100.00;97363.41;6094985;23;20428;-82
2022/04/11 03:43:17;;;;;;;0.20;0.20;;;;;;;3.02;100.00;97360.97;6119640;23;20517;-82
2022/04/11 03:45:42;;;;;;;0.20;0.20;;;;;;;3.10;100.00;97383.59;6094945;23;20006;-83
2022/04/11 03:48:08;;;;;;;0.10;0.10;;;;;;;3.19;100.00;97379.75;6095776;23;20473;-82
2022/04/11 03:50:34;;;;;;;0.20;0.20;;;;;;;3.26;100.00;97389.19;6095146;23;20469;-83
2022/04/11 03:52:59;;;;;;;0.20;0.20;;;;;;;3.31;100.00;97394.31;6100515;22;20346;-81
2022/04/11 03:55:25;;;;;;;0.10;0.10;;;;;;;3.18;100.00;97372.75;6242751;23;20027;-82
2022/04/11 03:57:51;;;;;;;0.10;0.10;;;;;;;3.32;100.00;97391.63;6241849;23;20010;-84
2022/04/11 04:00:17;;;;;;;0.20;0.20;;;;;;;3.24;100.00;97383.97;6218200;23;20011;-81
2022/04/11 04:02:44;;;;;;;0.10;0.10;;;;;;;3.25;100.00;97387.47;6194441;23;20008;-82
2022/04/11 04:05:28;;;;;;;0.10;0.10;;;;;;;3.45;100.00;97408.75;6219400;23;20346;-83
2022/04/11 04:07:54;;;;;;;0.20;0.20;;;;;;;3.30;100.00;97382.88;6247486;23;20000;-83
2022/04/11 04:10:19;;;;;;;0.20;0.20;;;;;;;3.28;100.00;97377.66;6220682;23;20008;-83
2022/04/11 04:12:46;;;;;;;0.10;0.10;;;;;;;3.24;100.00;97356.66;6221482;23;20626;-82
2022/04/11 04:15:11;;;;;;;0.10;0.10;;;;;;;3.49;100.00;97394.50;6226326;23;20459;-78
2022/04/11 04:17:41;;;;;;;0.20;0.20;;;;;;;3.57;100.00;97410.94;6250214;22;20000;-81
2022/04/11 04:20:20;;;;;;;;;;;;;;;;;;;;;
2022/04/11 04:22:46;;;;;;;0.20;0.20;;;;;;;3.42;100.00;97406.22;6245047;23;20071;-81
2022/04/11 04:25:12;;;;;;;0.10;0.10;;;;;;;3.20;100.00;97360.31;6219647;23;20032;-82
2022/04/11 04:27:37;;;;;;;0.10;0.10;;;;;;;3.66;100.00;97433.56;6220793;23;20004;-82
2022/04/11 04:30:29;;;;;;;0.20;0.20;;;;;;;3.77;100.00;97445.47;6219283;23;20046;-82
2022/04/11 04:33:05;;;;;;;0.20;0.20;;;;;;;3.51;100.00;97394.44;6207797;23;20452;-81
2022/04/11 04:35:45;;;;;;;0.20;0.20;;;;;;;3.56;100.00;97414.53;6221106;23;20012;-81
2022/04/11 04:38:11;;;;;;;0.10;0.10;;;;;;;3.57;100.00;97447.97;6217292;23;20004;-81
2022/04/11 04:40:37;;;;;;;0.20;0.20;;;;;;;3.65;100.00;97451.22;6217542;23;20016;-81
2022/04/11 04:43:04;;;;;;;0.20;0.20;;;;;;;3.76;100.00;97467.53;6243067;23;20406;-81
2022/04/11 04:45:30;;;;;;;0.10;0.10;;;;;;;3.72;100.00;97470.38;6243255;23;20000;-81
2022/04/11 04:47:55;;;;;;;0.10;0.10;;;;;;;3.75;100.00;97463.16;6217550;23;20014;-82
2022/04/11 04:50:21;;;;;;;0.10;0.10;;;;;;;3.83;100.00;97479.63;6243199;23;20003;-82
2022/04/11 04:52:46;;;;;;;0.10;0.10;;;;;;;3.81;100.00;97475.31;6217561;23;20026;-82
2022/04/11 04:55:12;;;;;;;0.10;0.10;;;;;;;3.83;100.00;97479.63;6217576;23;20012;-82
2022/04/11 04:57:38;;;;;;;0.10;0.10;;;;;;;3.88;100.00;97468.88;6217417;23;20028;-81
2022/04/11 05:00:04;;;;;;;0.20;0.20;;;;;;;3.79;100.00;97474.50;6217087;23;20023;-82
2022/04/11 05:02:37;;;;;;;0.10;0.10;;;;;;;3.85;100.00;97482.22;6216926;23;20000;-81
2022/04/11 05:05:07;;;;;;;0.10;0.10;;;;;;;3.88;100.00;97489.19;6242907;23;20301;-82
2022/04/11 05:07:33;;;;;;;0.10;0.10;;;;;;;3.83;100.00;97487.56;6217287;23;20015;-81
2022/04/11 05:09:59;;;;;;;0.20;0.20;;;;;;;3.77;100.00;97474.56;6217602;23;20436;-82
2022/04/11 05:12:24;;;;;;;0.10;0.10;;;;;;;3.72;100.00;97497.66;6217515;23;20015;-80
2022/04/11 05:14:50;;;;;;;0.20;0.20;;;;;;;3.41;100.00;97475.00;6218350;23;20039;-81
2022/04/11 05:17:22;;;;;;;0.20;0.20;;;;;;;3.13;100.00;97428.41;6218789;23;20014;-82
2022/04/11 05:19:48;;;;;;;0.15;0.15;;;;;;;3.45;100.00;97495.97;6219251;23;20004;-81
2022/04/11 05:22:13;;;;;;;0.20;0.20;;;;;;;3.34;100.00;97498.16;6217354;23;20081;-81
2022/04/11 05:24:39;;;;;;;0.20;0.20;;;;;;;3.45;100.00;97503.03;6217454;23;20004;-81
2022/04/11 05:27:05;;;;;;;0.10;0.10;;;;;;;3.44;100.00;97502.22;6217068;23;20004;-81
2022/04/11 05:29:30;;;;;;;0.20;0.20;;;;;;;3.45;100.00;97508.34;6217477;23;20083;-82
2022/04/11 05:31:56;;;;;;;0.10;0.10;;;;;;;3.41;100.00;97496.16;6217385;23;20452;-81
2022/04/11 05:34:21;;;;;;;0.20;0.20;;;;;;;3.32;100.00;97504.41;6217765;23;20004;-80
2022/04/11 05:36:47;;;;;;;0.20;0.20;;;;;;;3.29;100.00;97502.75;6217380;23;20007;-80
2022/04/11 05:39:13;;;;;;;0.20;0.20;;;;;;;3.41;100.00;97509.38;6242853;23;20004;-81
2022/04/11 05:41:38;;;;;;;0.20;0.20;;;;;;;3.59;100.00;97522.81;6217389;23;20074;-81
2022/04/11 05:44:04;;;;;;;0.20;0.20;;;;;;;3.47;100.00;97512.69;6217199;23;20065;-81
2022/04/11 05:46:30;;;;;;;0.17;0.17;;;;;;;3.45;100.00;97526.84;6219280;23;20129;-81
2022/04/11 05:48:55;;;;;;;0.17;0.17;;;;;;;3.53;100.00;97512.47;6216902;23;20004;-81
2022/04/11 05:51:21;;;;;;;0.10;0.10;;;;;;;3.47;100.00;97510.03;6217264;23;20093;-81
2022/04/11 05:53:46;;;;;;;0.10;0.10;;;;;;;3.38;100.00;97502.41;6217563;23;20008;-82
2022/04/11 05:56:12;;;;;;;0.20;0.20;;;;;;;3.38;100.00;97518.28;6242365;23;20341;-81
2022/04/11 05:58:37;;;;;;;0.20;0.20;;;;;;;3.29;100.00;97498.28;6218412;23;20012;-81
2022/04/11 06:01:03;;;;;;;0.10;0.10;;;;;;;3.30;100.00;97504.44;6218002;23;20102;-81
2022/04/11 06:03:29;;;;;;;0.10;0.10;;;;;;;3.25;100.00;97506.38;6243148;23;20000;-81
2022/04/11 06:05:54;;;;;;;0.10;0.10;;;;;;;3.23;100.00;97500.31;6217283;23;20008;-81
2022/04/11 06:08:20;;;;;;;0.20;0.20;;;;;;;3.31;100.00;97511.47;6217098;23;20032;-81
2022/04/11 06:10:46;;;;;;;0.10;0.10;;;;;;;3.16;100.00;97490.84;6218844;23;20065;-81
2022/04/11 06:13:12;;;;;;;0.10;0.10;;;;;;;3.41;100.00;97512.03;6217656;23;20008;-81
2022/04/11 06:15:38;;;;;;;0.13;0.13;;;;;;;3.53;100.00;97496.59;6220369;23;20038;-81
2022/04/11 06:18:03;;;;;;;0.20;0.20;;;;;;;3.71;100.00;97488.00;6217600;23;20019;-82
2022/04/11 06:20:29;;;;;;;0.10;0.10;;;;;;;3.98;100.00;97501.13;6242823;23;20030;-81
2022/04/11 06:22:55;;;;;;;0.10;0.10;;;;;;;4.11;100.00;97499.78;6217234;23;20053;-82
2022/04/11 06:25:22;;;;;;;0.10;0.10;;;;;;;4.35;100.00;97510.31;6216769;23;20029;-81
2022/04/11 06:27:47;;;;;;;0.10;0.10;;;;;;;4.60;100.00;97518.19;6243187;23;20000;-81
2022/04/11 06:30:13;;;;;;;0.10;0.10;;;;;;;4.75;100.00;97499.03;6218311;23;20095;-82
2022/04/11 06:32:38;;;;;;;0.10;0.10;;;;;;;4.98;100.00;97531.69;6216957;23;20000;-81
2022/04/11 06:35:04;;;;;;;0.10;0.10;;;;;;;4.97;100.00;97519.38;6244256;23;20004;-80
2022/04/11 06:37:30;;;;;;;0.10;0.10;;;;;;;5.06;100.00;97509.25;6216745;23;20087;-82
2022/04/11 06:40:11;;;;;;;0.10;0.10;;;;;;;5.24;100.00;97512.94;6217594;23;20000;-81
2022/04/11 06:42:37;;;;;;;0.10;0.10;;;;;;;5.41;100.00;97521.06;6243127;23;20451;-80
2022/04/11 06:45:04;;;;;;;0.10;0.10;;;;;;;5.66;100.00;97515.59;6217726;23;20008;-81
2022/04/11 06:47:30;;;;;;;0.10;0.10;;;;;;;5.89;100.00;97512.81;6242132;23;20463;-82
2022/04/11 06:49:55;;;;;;;0.10;0.10;;;;;;;6.09;100.00;97536.69;6216921;23;20095;-83
2022/04/11 06:52:21;;;;;;;0.10;0.10;;;;;;;6.05;100.00;97537.75;6216729;23;20019;-81
2022/04/11 06:54:46;;;;;;;0.10;0.10;;;;;;;6.37;100.00;97536.28;6216921;23;20011;-81
2022/04/11 06:57:12;;;;;;;0.10;0.10;;;;;;;6.45;100.00;97528.88;6216667;23;20448;-82
2022/04/11 06:59:38;;;;;;;0.10;0.10;;;;;;;6.67;100.00;97534.91;6216497;23;20012;-81
2022/04/11 07:02:03;;;;;;;0.10;0.10;;;;;;;6.82;100.00;97526.22;6242299;23;19996;-80
2022/04/11 07:04:29;;;;;;;0.10;0.10;;;;;;;7.11;100.00;97545.25;6216518;23;20008;-80
2022/04/11 07:06:57;;;;;;;0.10;0.10;;;;;;;6.99;100.00;97547.53;6217111;23;20016;-80
2022/04/11 07:09:22;;;;;;;0.10;0.10;;;;;;;6.73;100.00;97539.94;6218712;23;20389;-82
2022/04/11 07:11:48;;;;;;;0.10;0.10;;;;;;;6.80;100.00;97544.00;6216587;23;20000;-81
2022/04/11 07:14:13;;;;;;;0.10;0.10;;;;;;;6.83;100.00;97548.34;6216448;23;20011;-82
2022/04/11 07:16:39;;;;;;;0.10;0.10;;;;;;;6.84;100.00;97556.25;6215364;23;20004;-81
2022/04/11 07:19:06;;;;;;;0.10;0.10;;;;;;;6.73;95.81;97539.06;6239883;23;20079;-82
2022/04/11 07:21:32;;;;;;;0.10;0.10;;;;;;;6.86;94.77;97540.22;6213315;23;20401;-82
2022/04/11 07:23:58;;;;;;;0.10;0.10;;;;;;;7.04;94.48;97557.97;6214492;23;20092;-80
2022/04/11 07:26:24;;;;;;;0.10;0.10;;;;;;;6.89;100.00;97535.59;6241073;23;20031;-83
2022/04/11 07:28:50;;;;;;;0.10;0.10;;;;;;;7.34;99.26;97584.88;6240866;23;20062;-86
2022/04/11 07:31:16;;;;;;;0.10;0.10;;;;;;;7.57;97.57;97581.94;6214855;23;20008;-76
2022/04/11 07:33:41;;;;;;;0.10;0.10;;;;;;;7.72;92.08;97575.00;6213960;23;20047;-78
2022/04/11 07:36:07;;;;;;;0.10;0.10;;;;;;;7.91;96.06;97587.31;6239215;23;20476;-78
2022/04/11 07:38:33;;;;;;;0.10;0.10;;;;;;;7.86;100.00;97586.69;6240321;22;20079;-79
2022/04/11 07:40:58;;;;;;;0.10;0.10;;;;;;;7.92;99.18;97589.03;6239020;23;20047;-84
2022/04/11 07:43:24;;;;;;;0.10;0.10;;;;;;;7.86;99.51;97600.00;6213212;23;20008;-86
2022/04/11 07:45:49;;;;;;;0.00;0.00;;;;;;;7.87;99.14;97585.75;6214755;23;20011;-84
2022/04/11 07:48:15;;;;;;;0.10;0.10;;;;;;;7.99;97.71;97595.78;6218397;23;20008;-85
2022/04/11 07:50:41;;;;;;;0.00;0.00;;;;;;;8.21;96.35;97589.34;6217993;23;20016;-85
2022/04/11 07:53:06;;;;;;;0.00;0.00;;;;;;;8.08;92.82;97589.97;6217744;23;20039;-87
2022/04/11 07:55:33;;;;;;;0.03;0.03;;;;;;;8.17;89.74;97593.97;6214479;23;20090;-78
2022/04/11 07:57:59;;;;;;;0.10;0.10;;;;;;;8.16;86.96;97586.91;6241744;23;20030;-79
2022/04/11 08:00:25;;;;;;;0.10;0.10;;;;;;;8.63;89.67;97593.31;6242422;23;20444;-78
2022/04/11 08:02:55;;;;;;;0.00;0.00;;;;;;;10.01;82.85;97598.81;6217038;23;20000;-79
2022/04/11 08:05:21;;;;;;;0.00;0.00;;;;;;;10.94;78.01;97596.72;6244045;22;20069;-79
2022/04/11 08:07:48;;;;;;;0.00;0.00;;;;;;;11.41;74.29;97597.22;6216189;23;20937;-80
2022/04/11 08:10:13;;;;;;;0.00;0.00;;;;;;;11.11;66.83;97592.97;6242417;23;20004;-80
2022/04/11 08:12:40;;;;;;;0.00;0.00;;;;;;;10.84;67.78;97607.13;6243201;23;20007;-79
2022/04/11 08:15:06;;;;;;;0.10;0.10;;;;;;;10.65;68.70;97617.22;6242782;23;20012;-80
2022/04/11 08:17:32;;;;;;;0.03;0.03;;;;;;;10.29;65.47;97601.63;6243176;23;20401;-80
2022/04/11 08:19:58;;;;;;;0.03;0.03;;;;;;;10.51;67.10;97611.00;6244720;22;20009;-80
2022/04/11 08:22:23;;;;;;;0.00;0.00;;;;;;;9.82;70.60;97619.53;6217839;23;20000;-78
2022/04/11 08:24:49;;;;;;;0.10;0.10;;;;;;;9.72;67.79;97619.19;6218078;23;20441;-78
2022/04/11 08:27:15;;;;;;;0.08;0.08;;;;;;;9.71;69.71;97620.16;6242778;23;19999;-78
2022/04/11 08:29:41;;;;;;;0.00;0.00;;;;;;;9.53;68.21;97626.56;6244833;22;20087;-78
2022/04/11 08:32:07;;;;;;;0.00;0.00;;;;;;;9.46;68.88;97611.81;6244120;22;20451;-78
2022/04/11 08:34:32;;;;;;;0.00;0.00;;;;;;;9.29;68.10;97622.56;6245605;22;20514;-78
2022/04/11 08:36:58;;;;;;;0.10;0.10;;;;;;;8.86;69.37;97636.56;6216906;23;20050;-80
2022/04/11 08:39:24;;;;;;;0.00;0.00;;;;;;;8.71;72.93;97646.22;6245056;22;20499;-78
2022/04/11 08:41:51;;;;;;;0.08;0.08;;;;;;;8.70;71.11;97644.50;6242501;23;20027;-78
2022/04/11 08:44:17;;;;;;;0.10;0.10;;;;;;;8.56;71.07;97645.22;6242568;23;20004;-79
2022/04/11 08:46:43;;;;;;;0.05;0.05;;;;;;;8.45;72.73;97641.41;6244101;22;20324;-79
2022/04/11 08:49:09;;;;;;;0.00;0.00;;;;;;;8.43;71.04;97638.81;6217778;23;20003;-79
2022/04/11 08:51:36;;;;;;;0.00;0.00;;;;;;;8.48;71.55;97649.25;6243062;23;20038;-79
2022/04/11 08:54:02;;;;;;;0.10;0.10;;;;;;;8.49;72.18;97632.31;6240973;23;20011;-79
2022/04/11 08:56:29;;;;;;;0.10;0.10;;;;;;;8.67;70.73;97637.50;6240882;23;20008;-78
2022/04/11 08:58:54;;;;;;;0.10;0.10;;;;;;;8.84;68.33;97628.63;6240569;23;20008;-79
2022/04/11 09:01:21;;;;;;;0.00;0.00;;;;;;;9.12;71.19;97644.00;6240783;23;20000;-79
2022/04/11 09:03:47;;;;;;;0.10;0.10;;;;;;;9.64;71.43;97633.94;6240360;23;20488;-79
2022/04/11 09:06:15;;;;;;;0.00;0.00;;;;;;;9.96;67.60;97624.97;6214895;23;20474;-79
2022/04/11 09:08:50;;;;;;;0.10;0.10;;;;;;;10.64;65.78;97631.56;6241628;22;20027;-79
2022/04/11 09:11:31;;;;;;;0.10;0.10;;;;;;;11.25;60.05;97620.59;6241852;22;20403;-80
2022/04/11 09:14:00;;;;;;;0.00;0.00;;;;;;;11.54;60.96;97628.56;6240658;23;20004;-80
2022/04/11 09:16:26;;;;;;;0.00;0.00;;;;;;;11.70;62.77;97624.84;6241087;23;20015;-79
2022/04/11 09:18:54;;;;;;;0.00;0.00;;;;;;;12.02;59.71;97614.69;6240625;23;20008;-79
2022/04/11 09:21:22;;;;;;;0.00;0.00;;;;;;;11.99;58.12;97616.72;6240797;23;20027;-79
2022/04/11 09:23:48;;;;;;;0.00;0.00;;;;;;;12.27;55.49;97605.84;6214732;23;20130;-80
2022/04/11 09:26:19;;;;;;;0.00;0.00;;;;;;;12.86;53.42;97601.69;6240295;23;20004;-80
2022/04/11 09:28:59;;;;;;;0.00;0.00;;;;;;;14.99;48.36;97579.41;6214737;23;20012;-80
2022/04/11 09:31:24;;;;;;;0.00;0.00;;;;;;;15.20;46.01;97580.38;6240353;23;20004;-80
2022/04/11 09:33:50;;;;;;;0.00;0.00;;;;;;;15.09;49.31;97588.47;6240263;23;20014;-81
2022/04/11 09:36:16;;;;;;;0.00;0.00;;;;;;;14.39;47.46;97585.06;6240549;23;20463;-81
2022/04/11 09:38:41;;;;;;;0.00;0.00;;;;;;;13.38;50.03;97583.63;6215922;23;20012;-80
2022/04/11 09:41:07;;;;;;;0.00;0.00;;;;;;;12.91;49.28;97587.00;6240051;23;20016;-79
2022/04/11 09:43:34;;;;;;;0.00;0.00;;;;;;;12.19;51.29;97601.00;6214709;23;20008;-80
2022/04/11 09:46:02;;;;;;;0.00;0.00;;;;;;;11.92;51.52;97608.22;6239758;23;20004;-79
2022/04/11 09:48:37;;;;;;;0.00;0.00;;;;;;;12.09;52.70;97615.97;6241082;22;20050;-80
2022/04/11 09:51:10;;;;;;;0.00;0.00;;;;;;;12.03;54.72;97615.56;6239562;23;20007;-79
2022/04/11 09:53:36;;;;;;;0.00;0.00;;;;;;;12.40;52.78;97610.25;6214407;23;20360;-80
2022/04/11 09:56:04;;;;;;;0.00;0.00;;;;;;;12.82;50.20;97600.22;6239767;23;20022;-81
2022/04/11 09:58:30;;;;;;;0.00;0.00;;;;;;;12.72;51.46;97604.50;6240388;23;20329;-80
2022/04/11 10:00:57;;;;;;;0.00;0.00;;;;;;;12.66;53.62;97619.22;6241861;23;20486;-81
2022/04/11 10:03:23;;;;;;;0.00;0.00;;;;;;;12.12;54.86;97610.41;6242233;22;20008;-81
2022/04/11 10:05:49;;;;;;;0.00;0.00;;;;;;;12.19;51.96;97600.13;6215957;23;20065;-80
2022/04/11 10:08:14;;;;;;;0.00;0.00;;;;;;;12.70;51.84;97585.84;6216256;23;20091;-79
2022/04/11 10:10:41;;;;;;;0.00;0.00;;;;;;;12.12;51.20;97604.22;6240755;23;20008;-80
2022/04/11 10:13:11;;;;;;;0.00;0.00;;;;;;;11.98;52.28;97599.75;6240016;23;20069;-80
2022/04/11 10:15:38;;;;;;;0.00;0.00;;;;;;;11.58;54.73;97603.31;6215227;23;20019;-81
2022/04/11 10:18:05;;;;;;;0.03;0.03;;;;;;;11.39;53.51;97609.84;6216415;23;20008;-81
2022/04/11 10:20:34;;;;;;;0.00;0.00;;;;;;;11.22;55.45;97620.78;6215224;23;20458;-80
2022/04/11 10:23:12;;;;;;;0.00;0.00;;;;;;;11.06;60.00;97635.22;6215331;23;20012;-80
2022/04/11 10:25:44;;;;;;;0.00;0.00;;;;;;;10.84;59.96;97633.00;6241080;23;20106;-79
2022/04/11 10:28:14;;;;;;;;;;;;;;;10.77;63.69;97643.22;6240619;23;20004;-80
2022/04/11 10:30:40;;;;;;;0.00;0.00;;;;;;;11.28;58.12;97617.72;6241180;23;19903;-79
2022/04/11 10:33:06;;;;;;;0.00;0.00;;;;;;;12.60;50.70;97584.75;6216401;23;20087;-79
2022/04/11 10:35:41;;;;;;;0.00;0.00;;;;;;;13.73;48.85;97572.97;6216624;23;20023;-79
2022/04/11 10:38:08;;;;;;;0.00;0.00;;;;;;;16.62;42.84;97551.44;6242674;23;20031;-80
2022/04/11 10:40:36;;;;;;;0.00;0.00;;;;;;;17.38;41.55;97545.56;6241838;23;20416;-80
2022/04/11 10:43:01;;;;;;;0.00;0.00;;;;;;;19.13;38.23;97532.81;6241632;23;20004;-80
2022/04/11 10:45:41;;;;;;;0.00;0.00;;;;;;;20.69;35.50;97515.22;6244553;22;20061;-81
2022/04/11 10:48:11;;;;;;;0.00;0.00;;;;;;;19.49;34.62;97510.25;6242708;23;20062;-80
2022/04/11 10:50:37;;;;;;;0.00;0.00;;;;;;;19.13;35.99;97502.97;6241761;23;20026;-80
2022/04/11 10:53:25;;;;;;;0.00;0.00;;;;;;;16.14;39.28;97524.94;6241197;23;20000;-80
2022/04/11 10:56:02;;;;;;;0.00;0.00;;;;;;;14.96;42.95;97533.84;6242261;23;20010;-80
2022/04/11 10:58:51;;;;;;;0.00;0.00;;;;;;;14.90;40.02;97523.56;6217159;23;20356;-80
2022/04/11 11:01:45;;;;;;;0.00;0.00;;;;;;;14.59;42.81;97535.91;6217182;23;20024;-79
2022/04/11 11:04:18;;;;;;;0.00;0.00;;;;;;;13.49;46.03;97545.22;6245303;22;20011;-80
2022/04/11 11:06:43;;;;;;;0.00;0.00;;;;;;;13.34;47.66;97563.34;6242939;23;20530;-80
2022/04/11 11:09:19;;;;;;;0.00;0.00;;;;;;;12.77;51.70;97591.59;6243151;23;20007;-80
2022/04/11 11:11:49;;;;;;;0.00;0.00;;;;;;;12.30;48.06;97577.00;6242325;23;20090;-80
2022/04/11 11:14:42;;;;;;;0.00;0.00;;;;;;;11.95;48.36;97586.56;6242387;23;20011;-80
2022/04/11 11:17:08;;;;;;;0.00;0.00;;;;;;;12.21;47.74;97582.97;6242222;23;20008;-80
2022/04/11 11:20:02;;;;;;;0.00;0.00;;;;;;;13.61;44.96;97564.97;6245550;23;20073;-80
2022/04/11 11:22:31;;;;;;;0.00;0.00;;;;;;;14.27;44.28;97543.78;6245061;23;20010;-80
2022/04/11 11:25:17;;;;;;;0.00;0.00;;;;;;;16.08;40.05;97548.88;6244289;23;20004;-80
2022/04/11 11:27:44;;;;;;;0.00;0.00;;;;;;;16.77;38.40;97531.19;6219771;23;20004;-80
2022/04/11 11:30:11;;;;;;;0.00;0.00;;;;;;;16.31;38.92;97528.88;6247006;23;20000;-80
2022/04/11 11:32:39;;;;;;;0.00;0.00;;;;;;;15.49;39.80;97535.81;6220207;23;20014;-80
2022/04/11 11:35:06;;;;;;;0.00;0.00;;;;;;;14.51;38.00;97516.81;6244927;23;20454;-80
2022/04/11 11:37:31;;;;;;;0.00;0.00;;;;;;;13.92;40.01;97527.63;6246759;23;20064;-81